createdAt,value
2022-08-20T00:01:14.684Z,23.70
2022-08-20T00:03:50.144Z,23.80
2022-08-20T00:07:00.671Z,23.40
2022-08-20T00:09:29.997Z,23.30
2022-08-20T00:11:59.108Z,23.60
2022-08-20T00:14:58.335Z,23.60
2022-08-20T00:17:38.420Z,23.60
2022-08-20T00:20:11.582Z,23.50
2022-08-20T00:22:41.507Z,23.50
2022-08-20T00:25:13.265Z,23.40
2022-08-20T00:27:43.292Z,23.80
2022-08-20T00:30:24.132Z,23.40
2022-08-20T00:33:10.332Z,23.40
2022-08-20T00:36:11.941Z,23.10
2022-08-20T00:38:52.260Z,23.20
2022-08-20T00:41:37.368Z,23.40
2022-08-20T00:44:17.830Z,23.30
2022-08-20T00:47:09.810Z,22.90
2022-08-20T00:49:44.240Z,22.80
2022-08-20T00:52:19.228Z,23.10
2022-08-20T00:54:59.888Z,23.10
2022-08-20T01:00:40.875Z,22.90
2022-08-20T01:06:04.631Z,22.80
2022-08-20T01:08:39.136Z,22.60
2022-08-20T01:11:15.077Z,22.40
2022-08-20T01:13:51.624Z,22.50
2022-08-20T01:16:32.796Z,22.30
2022-08-20T01:22:34.278Z,22.20
2022-08-20T01:25:12.003Z,22.10
2022-08-20T01:27:56.161Z,22.10
2022-08-20T01:30:32.137Z,21.80
2022-08-20T01:33:02.891Z,21.70
2022-08-20T01:35:49.049Z,21.70
2022-08-20T01:38:21.304Z,21.70
2022-08-20T01:41:28.855Z,21.70
2022-08-20T01:50:37.336Z,21.60
2022-08-20T01:53:24.417Z,21.50
2022-08-20T01:56:01.663Z,21.30
2022-08-20T01:58:37.299Z,21.30
2022-08-20T02:01:06.548Z,21.50
2022-08-20T02:03:44.611Z,21.50
2022-08-20T02:06:24.419Z,21.60
2022-08-20T02:09:15.940Z,21.50
2022-08-20T02:11:55.463Z,21.40
2022-08-20T02:14:35.284Z,21.50
2022-08-20T02:17:04.695Z,21.70
2022-08-20T02:19:38.646Z,22.00
2022-08-20T02:22:24.065Z,21.60
2022-08-20T02:24:54.646Z,21.50
2022-08-20T02:27:34.044Z,21.40
2022-08-20T02:30:28.065Z,21.60
2022-08-20T02:32:58.628Z,21.50
2022-08-20T02:35:30.665Z,21.50
2022-08-20T02:38:08.420Z,21.60
2022-08-20T02:40:37.744Z,21.70
2022-08-20T02:43:07.937Z,21.70
2022-08-20T02:45:40.802Z,21.70
2022-08-20T02:48:12.876Z,21.60
2022-08-20T02:50:47.607Z,21.50
2022-08-20T02:53:23.623Z,21.50
2022-08-20T02:55:53.102Z,21.40
2022-08-20T02:58:24.191Z,21.40
2022-08-20T03:00:57.035Z,21.50
2022-08-20T03:03:26.026Z,21.60
2022-08-20T03:05:59.948Z,21.50
2022-08-20T03:08:33.867Z,21.50
2022-08-20T03:11:03.174Z,21.60
2022-08-20T03:13:33.711Z,21.60
2022-08-20T03:16:03.957Z,21.70
2022-08-20T03:18:38.443Z,21.60
2022-08-20T03:21:14.877Z,21.50
2022-08-20T03:23:46.846Z,21.90
2022-08-20T03:26:17.574Z,21.50
2022-08-20T03:28:50.332Z,21.70
2022-08-20T03:31:23.027Z,20.90
2022-08-20T03:33:53.554Z,21.70
2022-08-20T03:36:27.896Z,21.50
2022-08-20T03:39:02.979Z,21.40
2022-08-20T03:41:32.427Z,21.40
2022-08-20T03:44:01.969Z,21.50
2022-08-20T03:46:31.417Z,21.30
2022-08-20T03:49:00.940Z,21.30
2022-08-20T03:51:31.735Z,21.30
2022-08-20T03:54:27.366Z,21.20
2022-08-20T03:57:02.804Z,21.20
2022-08-20T03:59:34.391Z,21.20
2022-08-20T04:02:06.169Z,21.30
2022-08-20T04:04:35.227Z,21.30
2022-08-20T04:07:12.350Z,21.30
2022-08-20T04:09:45.105Z,21.30
2022-08-20T04:12:18.110Z,21.40
2022-08-20T04:14:55.510Z,21.50
2022-08-20T04:17:28.875Z,21.50
2022-08-20T04:20:00.928Z,21.60
2022-08-20T04:22:35.370Z,21.80
2022-08-20T04:25:09.364Z,21.30
2022-08-20T04:28:01.218Z,21.50
2022-08-20T04:30:31.825Z,21.70
2022-08-20T04:33:03.760Z,20.80
2022-08-20T04:35:33.583Z,21.70
2022-08-20T04:38:05.930Z,21.80
2022-08-20T04:40:56.151Z,21.70
2022-08-20T04:43:28.286Z,21.70
2022-08-20T04:46:04.554Z,22.00
2022-08-20T04:48:35.098Z,21.60
2022-08-20T04:51:04.630Z,21.60
2022-08-20T04:53:34.135Z,21.50
2022-08-20T04:56:10.895Z,21.60
2022-08-20T04:58:42.137Z,21.60
2022-08-20T05:01:13.746Z,21.40
2022-08-20T05:03:55.081Z,21.60
2022-08-20T05:06:26.663Z,21.60
2022-08-20T05:08:56.332Z,21.50
2022-08-20T05:11:42.661Z,21.70
2022-08-20T05:14:14.094Z,21.70
2022-08-20T05:16:48.156Z,21.50
2022-08-20T05:19:20.331Z,21.70
2022-08-20T05:21:51.825Z,21.70
2022-08-20T05:24:23.019Z,21.80
2022-08-20T05:26:55.728Z,22.00
2022-08-20T05:29:38.372Z,21.80
2022-08-20T05:32:08.782Z,21.90
2022-08-20T05:34:39.192Z,21.80
2022-08-20T05:37:14.640Z,21.90
2022-08-20T05:39:47.243Z,21.90
2022-08-20T05:42:18.269Z,21.90
2022-08-20T05:44:47.677Z,21.70
2022-08-20T05:47:35.418Z,21.70
2022-08-20T05:50:20.670Z,21.70
2022-08-20T05:52:56.960Z,21.50
2022-08-20T05:55:32.484Z,21.90
2022-08-20T05:58:17.472Z,21.90
2022-08-20T06:00:49.573Z,21.90
2022-08-20T06:03:36.764Z,21.90
2022-08-20T06:06:18.349Z,22.00
2022-08-20T06:09:13.698Z,22.30
2022-08-20T06:11:46.312Z,22.50
2022-08-20T06:14:22.655Z,22.60
2022-08-20T06:16:57.875Z,22.60
2022-08-20T06:19:32.298Z,22.80
2022-08-20T06:22:19.787Z,22.20
2022-08-20T06:24:53.751Z,22.60
2022-08-20T06:27:29.379Z,22.70
2022-08-20T06:30:01.817Z,22.80
2022-08-20T06:32:32.659Z,22.70
2022-08-20T06:35:06.438Z,22.80
2022-08-20T06:37:37.461Z,22.90
2022-08-20T06:40:09.767Z,23.10
2022-08-20T06:42:48.186Z,23.00
2022-08-20T06:45:27.106Z,23.00
2022-08-20T06:47:58.486Z,23.50
2022-08-20T06:50:33.271Z,23.90
2022-08-20T06:53:05.584Z,24.30
2022-08-20T06:55:40.715Z,24.60
2022-08-20T06:58:38.415Z,24.40
2022-08-20T07:01:21.714Z,24.40
2022-08-20T07:03:55.992Z,24.30
2022-08-20T07:06:27.162Z,24.20
2022-08-20T07:09:01.011Z,23.50
2022-08-20T07:11:30.136Z,23.80
2022-08-20T07:14:00.072Z,23.80
2022-08-20T07:16:31.838Z,23.70
2022-08-20T07:19:08.921Z,23.70
2022-08-20T07:21:39.760Z,23.70
2022-08-20T07:24:13.323Z,23.50
2022-08-20T07:26:43.197Z,23.80
2022-08-20T07:29:12.963Z,23.80
2022-08-20T07:32:02.284Z,23.90
2022-08-20T07:34:43.639Z,23.80
2022-08-20T07:37:15.390Z,24.00
2022-08-20T07:39:50.371Z,24.00
2022-08-20T07:42:24.604Z,24.40
2022-08-20T07:45:06.257Z,24.20
2022-08-20T07:47:39.628Z,24.00
2022-08-20T07:50:11.000Z,23.90
2022-08-20T07:52:40.555Z,24.00
2022-08-20T07:55:13.403Z,23.60
2022-08-20T07:57:45.678Z,23.60
2022-08-20T08:00:18.090Z,23.50
2022-08-20T08:02:50.924Z,23.70
2022-08-20T08:05:24.443Z,23.70
2022-08-20T08:07:53.802Z,23.30
2022-08-20T08:10:26.722Z,23.50
2022-08-20T08:12:59.967Z,23.40
2022-08-20T08:15:35.308Z,23.50
2022-08-20T08:18:10.802Z,23.50
2022-08-20T08:20:46.651Z,23.80
2022-08-20T08:23:24.663Z,23.90
2022-08-20T08:26:00.962Z,23.70
2022-08-20T08:28:34.859Z,23.30
2022-08-20T08:31:04.643Z,23.10
2022-08-20T08:33:38.880Z,23.00
2022-08-20T08:38:57.010Z,22.70
2022-08-20T08:41:32.702Z,22.90
2022-08-20T08:44:06.620Z,23.50
2022-08-20T08:54:07.303Z,25.90
2022-08-20T09:04:07.251Z,26.80
2022-08-20T10:00:05.198Z,25.90
2022-08-20T10:05:37.270Z,26.40
2022-08-20T10:08:23.907Z,26.20
2022-08-20T10:10:58.621Z,26.00
2022-08-20T10:13:29.194Z,25.60
2022-08-20T10:16:23.962Z,25.40
2022-08-20T10:18:57.883Z,25.20
2022-08-20T10:22:07.721Z,25.60
2022-08-20T10:24:47.901Z,25.90
2022-08-20T10:27:31.404Z,26.70
2022-08-20T10:30:01.743Z,27.40
2022-08-20T10:32:36.972Z,27.20
2022-08-20T10:35:08.143Z,27.30
2022-08-20T10:37:48.173Z,27.30
2022-08-20T10:46:48.055Z,27.90
2022-08-20T10:52:43.483Z,27.60
2022-08-20T10:55:30.595Z,27.50
2022-08-20T10:58:14.951Z,27.50
2022-08-20T11:04:06.450Z,28.10
2022-08-20T11:06:56.171Z,27.80
2022-08-20T11:09:37.253Z,27.60
2022-08-20T11:12:07.350Z,27.90
2022-08-20T11:17:53.405Z,27.80
2022-08-20T11:20:30.466Z,28.10
2022-08-20T11:23:27.688Z,28.00
2022-08-20T11:29:14.576Z,28.00
2022-08-20T11:31:46.199Z,28.10
2022-08-20T11:34:37.708Z,27.90
2022-08-20T11:37:25.774Z,27.70
2022-08-20T11:45:59.049Z,28.00
2022-08-20T11:48:48.865Z,28.00
2022-08-20T12:11:53.076Z,27.40
2022-08-20T12:14:45.517Z,27.10
2022-08-20T12:17:27.809Z,27.00
2022-08-20T12:20:07.172Z,27.00
2022-08-20T12:23:29.344Z,26.60
2022-08-20T12:26:40.302Z,26.60
2022-08-20T12:29:21.615Z,26.40
2022-08-20T12:31:59.383Z,26.00
2022-08-20T12:35:03.627Z,25.90
2022-08-20T12:37:35.350Z,25.70
2022-08-20T12:43:06.810Z,25.60
2022-08-20T12:45:39.555Z,25.70
2022-08-20T12:48:17.553Z,25.90
2022-08-20T12:50:51.806Z,26.00
2022-08-20T12:53:23.246Z,26.30
2022-08-20T12:56:19.616Z,26.50
2022-08-20T12:58:49.631Z,26.90
2022-08-20T13:01:38.923Z,27.10
2022-08-20T13:04:13.425Z,26.90
2022-08-20T13:06:55.066Z,27.20
2022-08-20T13:09:27.783Z,27.30
2022-08-20T13:11:57.263Z,27.30
2022-08-20T13:14:33.605Z,27.20
2022-08-20T13:17:06.535Z,27.30
2022-08-20T13:19:45.582Z,27.50
2022-08-20T13:22:34.962Z,26.90
2022-08-20T13:25:04.929Z,27.30
2022-08-20T13:27:39.102Z,27.00
2022-08-20T13:30:26.646Z,26.80
2022-08-20T13:33:02.588Z,26.80
2022-08-20T13:35:36.105Z,26.80
2022-08-20T13:38:09.191Z,26.90
2022-08-20T13:40:47.498Z,27.00
2022-08-20T13:43:27.324Z,27.00
2022-08-20T13:48:47.179Z,27.20
2022-08-20T13:51:19.022Z,27.40
2022-08-20T13:53:54.812Z,27.60
2022-08-20T13:56:26.026Z,27.70
2022-08-20T13:58:56.062Z,27.80
2022-08-20T14:01:26.008Z,27.70
2022-08-20T14:03:58.525Z,27.60
2022-08-20T14:06:37.655Z,27.50
2022-08-20T14:09:21.945Z,27.60
2022-08-20T14:12:05.111Z,27.40
2022-08-20T14:14:43.164Z,27.40
2022-08-20T14:17:21.723Z,27.30
2022-08-20T14:20:02.557Z,27.30
2022-08-20T14:22:32.603Z,27.20
2022-08-20T14:25:06.165Z,27.00
2022-08-20T14:27:41.577Z,27.10
2022-08-20T14:30:19.234Z,27.10
2022-08-20T14:32:52.859Z,27.10
2022-08-20T14:35:25.107Z,27.00
2022-08-20T14:37:57.083Z,27.10
2022-08-20T14:40:29.725Z,27.20
2022-08-20T14:42:59.294Z,27.10
2022-08-20T14:45:30.266Z,27.00
2022-08-20T14:48:01.635Z,27.00
2022-08-20T14:50:55.738Z,26.90
2022-08-20T14:53:25.840Z,26.90
2022-08-20T14:55:57.827Z,26.90
2022-08-20T14:58:37.972Z,26.50
2022-08-20T15:01:29.047Z,26.40
2022-08-20T15:03:59.037Z,26.50
2022-08-20T15:06:35.419Z,26.60
2022-08-20T15:09:24.487Z,26.60
2022-08-20T15:12:03.698Z,26.30
2022-08-20T15:14:39.266Z,26.40
2022-08-20T15:18:12.259Z,26.10
2022-08-20T15:21:29.853Z,26.30
2022-08-20T15:24:41.772Z,26.10
2022-08-20T15:27:34.713Z,26.30
2022-08-20T15:30:10.122Z,26.10
2022-08-20T15:33:26.430Z,26.10
2022-08-20T15:35:56.415Z,26.20
2022-08-20T15:38:26.093Z,26.40
2022-08-20T15:40:58.490Z,26.50
2022-08-20T15:43:31.747Z,26.50
2022-08-20T15:46:04.888Z,26.40
2022-08-20T15:48:52.953Z,26.30
2022-08-20T15:51:33.426Z,25.90
2022-08-20T15:54:20.258Z,26.10
2022-08-20T15:57:03.170Z,26.10
2022-08-20T16:00:13.571Z,26.10
2022-08-20T16:03:08.753Z,26.00
2022-08-20T16:05:52.770Z,26.00
2022-08-20T16:08:39.336Z,25.90
2022-08-20T16:11:27.861Z,26.00
2022-08-20T16:14:17.889Z,26.10
2022-08-20T16:17:01.353Z,26.20
2022-08-20T16:19:42.072Z,26.30
2022-08-20T16:22:16.945Z,26.40
2022-08-20T16:24:49.395Z,26.40
2022-08-20T16:27:29.182Z,26.40
2022-08-20T16:30:09.833Z,26.30
2022-08-20T16:32:43.325Z,26.20
2022-08-20T16:35:32.587Z,26.10
2022-08-20T16:38:09.216Z,26.00
2022-08-20T16:40:50.238Z,25.90
2022-08-20T16:43:38.657Z,25.70
2022-08-20T16:46:26.714Z,25.50
2022-08-20T16:53:49.431Z,25.40
2022-08-20T16:59:43.604Z,25.30
2022-08-20T17:02:49.300Z,25.30
2022-08-20T17:05:53.784Z,25.20
2022-08-20T17:08:49.777Z,25.30
2022-08-20T17:11:40.914Z,25.40
2022-08-20T17:14:13.816Z,25.50
2022-08-20T17:16:50.149Z,25.50
2022-08-20T17:19:35.957Z,25.40
2022-08-20T17:22:15.500Z,25.60
2022-08-20T17:24:57.517Z,25.50
2022-08-20T17:27:42.531Z,25.40
2022-08-20T17:30:26.534Z,25.40
2022-08-20T17:33:03.527Z,25.20
2022-08-20T17:38:43.921Z,25.10
2022-08-20T17:41:22.589Z,25.00
2022-08-20T17:44:00.423Z,24.90
2022-08-20T17:46:36.759Z,24.80
2022-08-20T17:49:24.864Z,24.60
2022-08-20T17:56:00.763Z,24.50
2022-08-20T18:02:21.298Z,24.30
2022-08-20T18:04:54.468Z,24.50
2022-08-20T18:07:30.853Z,24.20
2022-08-20T18:10:04.594Z,24.40
2022-08-20T18:12:41.706Z,24.10
2022-08-20T18:15:54.060Z,24.00
2022-08-20T18:19:33.541Z,24.40
2022-08-20T18:22:35.142Z,23.30
2022-08-20T18:25:36.822Z,23.90
2022-08-20T18:28:19.463Z,23.70
2022-08-20T18:31:17.693Z,23.70
2022-08-20T18:34:20.331Z,23.60
2022-08-20T18:37:03.905Z,23.60
2022-08-20T18:39:42.887Z,23.90
2022-08-20T18:45:51.282Z,23.50
2022-08-20T18:48:51.730Z,23.50
2022-08-20T18:57:51.376Z,24.30
2022-08-20T19:12:03.284Z,24.70
2022-08-20T19:15:35.376Z,24.90
2022-08-20T19:18:35.761Z,24.70
2022-08-20T19:21:19.964Z,24.90
2022-08-20T19:28:06.457Z,24.70
2022-08-20T19:30:44.941Z,24.50
2022-08-20T19:33:30.706Z,24.70
2022-08-20T19:36:33.983Z,24.60
2022-08-20T19:39:28.744Z,24.60
2022-08-20T19:42:04.808Z,24.60
2022-08-20T19:45:12.543Z,24.10
2022-08-20T19:48:01.174Z,24.70
2022-08-20T19:51:04.404Z,24.20
2022-08-20T19:53:39.306Z,24.30
2022-08-20T19:56:18.686Z,24.20
2022-08-20T19:59:05.474Z,24.00
2022-08-20T20:02:49.809Z,24.20
2022-08-20T20:05:22.052Z,24.50
2022-08-20T20:08:11.013Z,24.40
2022-08-20T20:10:48.432Z,24.30
2022-08-20T20:13:22.619Z,24.30
2022-08-20T20:16:09.774Z,24.20
2022-08-20T20:19:09.072Z,24.20
2022-08-20T20:21:48.754Z,23.90
2022-08-20T20:24:27.120Z,24.20
2022-08-20T20:26:59.002Z,24.10
2022-08-20T20:32:26.504Z,24.00
2022-08-20T20:35:02.514Z,23.90
2022-08-20T20:37:49.922Z,23.90
2022-08-20T20:40:47.910Z,23.70
2022-08-20T20:43:30.063Z,23.80
2022-08-20T20:46:07.364Z,23.70
2022-08-20T20:48:46.669Z,23.60
2022-08-20T20:51:25.471Z,23.60
2022-08-20T20:53:55.965Z,23.60
2022-08-20T20:56:45.363Z,23.40
2022-08-20T20:59:27.917Z,23.20
2022-08-20T21:02:13.755Z,23.30
2022-08-20T21:04:53.948Z,23.20
2022-08-20T21:07:30.902Z,23.20
2022-08-20T21:10:04.019Z,22.60
2022-08-20T21:12:52.662Z,22.60
2022-08-20T21:18:26.638Z,22.20
2022-08-20T21:20:57.242Z,22.00
2022-08-20T21:23:40.218Z,21.80
2022-08-20T21:26:12.147Z,21.90
2022-08-20T21:28:47.258Z,21.80
2022-08-20T21:31:18.391Z,22.00
2022-08-20T21:33:47.975Z,21.80
2022-08-20T21:36:17.997Z,21.80
2022-08-20T21:38:56.546Z,21.60
2022-08-20T21:41:29.773Z,21.40
2022-08-20T21:44:24.860Z,21.20
2022-08-20T21:47:00.259Z,21.10
2022-08-20T21:49:38.308Z,21.00
2022-08-20T21:52:11.763Z,20.70
2022-08-20T21:54:43.424Z,20.90
2022-08-20T21:57:21.367Z,20.80
2022-08-20T21:59:58.410Z,20.80
2022-08-20T22:02:34.868Z,20.80
2022-08-20T22:05:18.566Z,20.80
2022-08-20T22:07:52.544Z,20.70
2022-08-20T22:10:23.366Z,20.80
2022-08-20T22:12:56.321Z,21.00
2022-08-20T22:15:32.368Z,21.20
2022-08-20T22:18:05.673Z,21.10
2022-08-20T22:20:40.268Z,21.20
2022-08-20T22:23:12.466Z,21.10
2022-08-20T22:25:46.640Z,21.10
2022-08-20T22:28:16.078Z,21.00
2022-08-20T22:30:47.712Z,21.00
2022-08-20T22:33:23.954Z,20.90
2022-08-20T22:35:59.085Z,20.90
2022-08-20T22:38:29.387Z,20.80
2022-08-20T22:40:59.203Z,20.90
2022-08-20T22:43:28.600Z,20.90
2022-08-20T22:46:03.094Z,20.80
2022-08-20T22:48:33.699Z,20.80
2022-08-20T22:51:04.292Z,20.60
2022-08-20T22:53:33.879Z,20.50
2022-08-20T22:56:05.243Z,20.50
2022-08-20T22:58:35.087Z,20.10
2022-08-20T23:01:06.908Z,20.30
2022-08-20T23:03:39.612Z,19.90
2022-08-20T23:06:18.293Z,20.30
2022-08-20T23:27:39.866Z,20.20
2022-08-20T23:35:32.163Z,20.30
2022-08-20T23:49:07.486Z,20.20
2022-08-20T23:59:33.518Z,20.30
